Sunflower Gold — JD2460 — position and weather

sailwx.info

Track history (hours):
 
Tides and Currents Weather Stations Pressure Air Temp Water Temp Dewpoint Dewpoint Depression Visibility Wind Speed Wind Dir Waves Ship Positions

Sunflower Gold

Last reported at 2014-Aug-30 12:18 UTC. Time now 2014-Aug-30 14:35 UTC.
Position N 34°34' E 134°49'.

Length 166 m; draft 5.8 m.

Type: Passenger vessel. MMSI: 431000331.

Date/timePositionNaut miles runAvg speedWind from/ knotsBaromVisibWave heightAir tempDewpointWater temp
2014-Aug-30 12:18N 34°34' E 134°49'1520.5
2014-Aug-30 11:33N 34°36' E 135°08'10 9.4
2014-Aug-30 10:32N 34°42' E 135°17'0 0.0
2014-Aug-30 09:26N 34°42' E 135°17'0 0.0
2014-Aug-30 08:32N 34°42' E 135°17'0 0.0
2014-Aug-30 07:32N 34°42' E 135°17'0 0.0
2014-Aug-30 06:32N 34°42' E 135°17'0 0.0
2014-Aug-30 05:32N 34°42' E 135°17'0 0.0
2014-Aug-30 04:32N 34°42' E 135°17'0 0.0
2014-Aug-30 03:20N 34°42' E 135°17'0 0.0
2014-Aug-30 02:32N 34°42' E 135°17'0 0.0
2014-Aug-30 01:32N 34°42' E 135°17'0 0.0
2014-Aug-30 00:29N 34°42' E 135°17'0 0.0
2014-Aug-29 23:23N 34°42' E 135°17'2 2.3
2014-Aug-29 22:34N 34°40' E 135°18'1514.4
2014-Aug-29 21:33N 34°37' E 135°01'11917.0
2014-Aug-29 14:33N 33°60' E 132°45'1 0.0
2014-Aug-28 17:32N 34°00' E 132°44'10717.8
2014-Aug-28 11:31N 34°33' E 134°48'1920.0
2014-Aug-28 10:33N 34°36' E 135°11'7 6.9
2014-Aug-28 09:30N 34°42' E 135°17'0 0.0
2014-Aug-28 08:29N 34°42' E 135°17'0 0.0
2014-Aug-28 07:24N 34°42' E 135°17'0 0.0
2014-Aug-28 06:30N 34°42' E 135°17'0 0.0
2014-Aug-28 05:29N 34°42' E 135°17'0 0.0
2014-Aug-28 04:30N 34°42' E 135°17'0 0.0
2014-Aug-28 03:29N 34°42' E 135°17'0 0.0
2014-Aug-28 02:27N 34°42' E 135°17'0 0.0
2014-Aug-28 01:08N 34°42' E 135°17'0 0.0
2014-Aug-28 00:32N 34°42' E 135°17'22 0.6
2014-Aug-26 11:28N 34°35' E 134°51'1718.8
2014-Aug-26 10:33N 34°36' E 135°12'7 5.9
2014-Aug-26 09:22N 34°42' E 135°17'0 0.0
2014-Aug-26 08:28N 34°42' E 135°17'0 0.0
2014-Aug-26 07:28N 34°42' E 135°17'0 0.0
2014-Aug-26 06:16N 34°42' E 135°17'0 0.0
2014-Aug-26 05:22N 34°42' E 135°17'0 0.0
2014-Aug-26 04:28N 34°42' E 135°17'0 0.0
2014-Aug-26 03:28N 34°42' E 135°17'0 0.0
2014-Aug-26 02:28N 34°42' E 135°17'0 0.0
2014-Aug-26 01:28N 34°42' E 135°17'0 0.0
2014-Aug-26 00:22N 34°42' E 135°17'0 0.0
2014-Aug-25 23:22N 34°42' E 135°17'0 0.0
2014-Aug-25 22:22N 34°42' E 135°17'0 0.0
2014-Aug-25 21:33N 34°42' E 135°17'1212.0
2014-Aug-25 20:33N 34°35' E 135°05'13118.1
2014-Aug-25 13:19N 33°52' E 132°35'1722.3
2014-Aug-25 12:33N 33°42' E 132°19'26 1.3
2014-Aug-24 17:33N 33°58' E 132°43'11518.3
2014-Aug-24 11:16N 34°36' E 134°54'1622.3
2014-Aug-24 10:34N 34°37' E 135°13'6 5.3
2014-Aug-24 09:23N 34°42' E 135°17'0 0.0
2014-Aug-24 08:29N 34°42' E 135°17'0 0.0
2014-Aug-24 07:29N 34°42' E 135°17'0 0.0
2014-Aug-24 06:33N 34°42' E 135°17'7 7.5
2014-Aug-24 05:34N 34°35' E 135°13'1313.3
2014-Aug-24 04:33N 34°37' E 134°57'1413.6
2014-Aug-24 03:33N 34°36' E 135°14'6 5.6
2014-Aug-24 02:28N 34°42' E 135°17'0 0.0
2014-Aug-24 01:28N 34°42' E 135°17'0 0.0
2014-Aug-24 00:28N 34°42' E 135°17'0 0.0
2014-Aug-23 23:28N 34°42' E 135°17'1 1.1
2014-Aug-23 22:33N 34°41' E 135°18'1514.5
2014-Aug-23 21:33N 34°37' E 135°01'121 4.5
2014-Aug-22 18:34N 33°58' E 132°42'11318.0
2014-Aug-22 12:16N 34°35' E 134°52'1419.9
2014-Aug-22 11:33N 34°36' E 135°09'9 8.8
2014-Aug-22 10:33N 34°42' E 135°17'0 0.0
2014-Aug-22 09:33N 34°42' E 135°17'0 0.0
2014-Aug-22 08:33N 34°42' E 135°17'0 0.0
2014-Aug-22 07:33N 34°42' E 135°17'0 0.0
2014-Aug-22 06:33N 34°42' E 135°17'0 0.0
2014-Aug-22 05:33N 34°42' E 135°17'0 0.0
2014-Aug-22 04:33N 34°42' E 135°17'0 0.0
2014-Aug-22 03:33N 34°42' E 135°17'0 0.0
2014-Aug-22 02:33N 34°42' E 135°17'0 0.0
2014-Aug-22 01:33N 34°42' E 135°17'0 0.0
2014-Aug-22 00:33N 34°42' E 135°17'0 0.0
2014-Aug-21 23:33N 34°42' E 135°17'0 0.0
2014-Aug-21 22:33N 34°42' E 135°17'0 0.0
2014-Aug-21 21:33N 34°42' E 135°17'1010.4
2014-Aug-21 20:33N 34°35' E 135°08'2019.3
2014-Aug-21 19:33N 34°32' E 134°44'10818.0
2014-Aug-21 13:33N 33°56' E 132°41'2522.0
2014-Aug-21 12:26N 33°41' E 132°19'  
Track history (hours):
 
Tides and Currents Weather Stations Pressure Air Temp Water Temp Dewpoint Dewpoint Depression Visibility Wind Speed Wind Dir Waves Ship Positions

Sunflower Gold

Last reported at 2014-Aug-30 12:18 UTC. Time now 2014-Aug-30 14:35 UTC.
Position N 34°34' E 134°49'.

Length 166 m; draft 5.8 m.

Type: Passenger vessel. MMSI: 431000331.

Date/timePositionNaut miles runAvg speedWind from/ knotsBaromVisibWave heightAir tempDewpointWater temp
2014-Aug-30 12:18N 34°34' E 134°49'1520.5
2014-Aug-30 11:33N 34°36' E 135°08'10 9.4
2014-Aug-30 10:32N 34°42' E 135°17'0 0.0
2014-Aug-30 09:26N 34°42' E 135°17'0 0.0
2014-Aug-30 08:32N 34°42' E 135°17'0 0.0
2014-Aug-30 07:32N 34°42' E 135°17'0 0.0
2014-Aug-30 06:32N 34°42' E 135°17'0 0.0
2014-Aug-30 05:32N 34°42' E 135°17'0 0.0
2014-Aug-30 04:32N 34°42' E 135°17'0 0.0
2014-Aug-30 03:20N 34°42' E 135°17'0 0.0
2014-Aug-30 02:32N 34°42' E 135°17'0 0.0
2014-Aug-30 01:32N 34°42' E 135°17'0 0.0
2014-Aug-30 00:29N 34°42' E 135°17'0 0.0
2014-Aug-29 23:23N 34°42' E 135°17'2 2.3
2014-Aug-29 22:34N 34°40' E 135°18'1514.4
2014-Aug-29 21:33N 34°37' E 135°01'11917.0
2014-Aug-29 14:33N 33°60' E 132°45'1 0.0
2014-Aug-28 17:32N 34°00' E 132°44'10717.8
2014-Aug-28 11:31N 34°33' E 134°48'1920.0
2014-Aug-28 10:33N 34°36' E 135°11'7 6.9
2014-Aug-28 09:30N 34°42' E 135°17'0 0.0
2014-Aug-28 08:29N 34°42' E 135°17'0 0.0
2014-Aug-28 07:24N 34°42' E 135°17'0 0.0
2014-Aug-28 06:30N 34°42' E 135°17'0 0.0
2014-Aug-28 05:29N 34°42' E 135°17'0 0.0
2014-Aug-28 04:30N 34°42' E 135°17'0 0.0
2014-Aug-28 03:29N 34°42' E 135°17'0 0.0
2014-Aug-28 02:27N 34°42' E 135°17'0 0.0
2014-Aug-28 01:08N 34°42' E 135°17'0 0.0
2014-Aug-28 00:32N 34°42' E 135°17'22 0.6
2014-Aug-26 11:28N 34°35' E 134°51'1718.8
2014-Aug-26 10:33N 34°36' E 135°12'7 5.9
2014-Aug-26 09:22N 34°42' E 135°17'0 0.0
2014-Aug-26 08:28N 34°42' E 135°17'0 0.0
2014-Aug-26 07:28N 34°42' E 135°17'0 0.0
2014-Aug-26 06:16N 34°42' E 135°17'0 0.0
2014-Aug-26 05:22N 34°42' E 135°17'0 0.0
2014-Aug-26 04:28N 34°42' E 135°17'0 0.0
2014-Aug-26 03:28N 34°42' E 135°17'0 0.0
2014-Aug-26 02:28N 34°42' E 135°17'0 0.0
2014-Aug-26 01:28N 34°42' E 135°17'0 0.0
2014-Aug-26 00:22N 34°42' E 135°17'0 0.0
2014-Aug-25 23:22N 34°42' E 135°17'0 0.0
2014-Aug-25 22:22N 34°42' E 135°17'0 0.0
2014-Aug-25 21:33N 34°42' E 135°17'1212.0
2014-Aug-25 20:33N 34°35' E 135°05'13118.1
2014-Aug-25 13:19N 33°52' E 132°35'1722.3
2014-Aug-25 12:33N 33°42' E 132°19'26 1.3
2014-Aug-24 17:33N 33°58' E 132°43'11518.3
2014-Aug-24 11:16N 34°36' E 134°54'1622.3
2014-Aug-24 10:34N 34°37' E 135°13'6 5.3
2014-Aug-24 09:23N 34°42' E 135°17'0 0.0
2014-Aug-24 08:29N 34°42' E 135°17'0 0.0
2014-Aug-24 07:29N 34°42' E 135°17'0 0.0
2014-Aug-24 06:33N 34°42' E 135°17'7 7.5
2014-Aug-24 05:34N 34°35' E 135°13'1313.3
2014-Aug-24 04:33N 34°37' E 134°57'1413.6
2014-Aug-24 03:33N 34°36' E 135°14'6 5.6
2014-Aug-24 02:28N 34°42' E 135°17'0 0.0
2014-Aug-24 01:28N 34°42' E 135°17'0 0.0
2014-Aug-24 00:28N 34°42' E 135°17'0 0.0
2014-Aug-23 23:28N 34°42' E 135°17'1 1.1
2014-Aug-23 22:33N 34°41' E 135°18'1514.5
2014-Aug-23 21:33N 34°37' E 135°01'121 4.5
2014-Aug-22 18:34N 33°58' E 132°42'11318.0
2014-Aug-22 12:16N 34°35' E 134°52'1419.9
2014-Aug-22 11:33N 34°36' E 135°09'9 8.8
2014-Aug-22 10:33N 34°42' E 135°17'0 0.0
2014-Aug-22 09:33N 34°42' E 135°17'0 0.0
2014-Aug-22 08:33N 34°42' E 135°17'0 0.0
2014-Aug-22 07:33N 34°42' E 135°17'0 0.0
2014-Aug-22 06:33N 34°42' E 135°17'0 0.0
2014-Aug-22 05:33N 34°42' E 135°17'0 0.0
2014-Aug-22 04:33N 34°42' E 135°17'0 0.0
2014-Aug-22 03:33N 34°42' E 135°17'0 0.0
2014-Aug-22 02:33N 34°42' E 135°17'0 0.0
2014-Aug-22 01:33N 34°42' E 135°17'0 0.0
2014-Aug-22 00:33N 34°42' E 135°17'0 0.0
2014-Aug-21 23:33N 34°42' E 135°17'0 0.0
2014-Aug-21 22:33N 34°42' E 135°17'0 0.0
2014-Aug-21 21:33N 34°42' E 135°17'1010.4
2014-Aug-21 20:33N 34°35' E 135°08'2019.3
2014-Aug-21 19:33N 34°32' E 134°44'10818.0
2014-Aug-21 13:33N 33°56' E 132°41'2522.0
2014-Aug-21 12:26N 33°41' E 132°19'  

Dump ship's entire track history